Time;durP1;ratioP1;P1;durP2;ratioP2;P2;SDS_P1;SDS_P2;PMS_P1;PMS_P2;Temp;Humidity;BMP_temperature;BMP_pressure;BME280_temperature;BME280_humidity;BME280_pressure;Samples;Min_cycle;Max_cycle;Signal;HPM_P1;HPM_P2
2023/07/01 00:01:10;;;;;;;4.60;1.55;;;;;;;;;;5037733;28;20025;-76
2023/07/01 00:03:36;;;;;;;3.08;1.35;;;;;;;;;;5036893;28;20060;-76
2023/07/01 00:06:02;;;;;;;2.72;1.50;;;;;;;;;;5021693;28;20037;-77
2023/07/01 00:08:27;;;;;;;4.35;1.83;;;;;;;;;;5039304;28;20121;-76
2023/07/01 00:10:58;;;;;;;2.55;1.27;;;;;;;;;;5020421;28;20120;-76
2023/07/01 00:13:24;;;;;;;2.83;1.50;;;;;;;;;;5038136;28;20025;-76
2023/07/01 00:15:49;;;;;;;4.13;1.77;;;;;;;;;;5040072;28;20043;-76
2023/07/01 00:18:14;;;;;;;3.13;1.50;;;;;;;;;;5016802;28;20068;-76
2023/07/01 00:20:40;;;;;;;4.35;1.60;;;;;;;;;;5037931;28;20029;-77
2023/07/01 00:23:05;;;;;;;5.20;1.65;;;;;;;;;;5021992;28;20493;-76
2023/07/01 00:25:30;;;;;;;3.80;1.70;;;;;;;;;;5024651;28;20029;-77
2023/07/01 00:27:56;;;;;;;4.88;1.67;;;;;;;;;;5040580;28;20484;-76
2023/07/01 00:30:21;;;;;;;5.28;1.55;;;;;;;;;;5020772;28;20033;-76
2023/07/01 00:32:47;;;;;;;5.13;2.03;;;;;;;;;;5027458;28;20037;-76
2023/07/01 00:35:12;;;;;;;3.90;1.35;;;;;;;;;;5040524;28;20025;-76
2023/07/01 00:37:37;;;;;;;3.78;1.58;;;;;;;;;;5021286;28;20029;-76
2023/07/01 00:40:04;;;;;;;3.25;1.48;;;;;;;;;;5044192;28;20024;-76
2023/07/01 00:42:30;;;;;;;4.90;1.60;;;;;;;;;;5039756;28;20055;-76
2023/07/01 00:44:55;;;;;;;3.90;1.67;;;;;;;;;;5022103;28;20467;-77
2023/07/01 00:47:20;;;;;;;3.88;1.50;;;;;;;;;;5039226;28;20556;-77
2023/07/01 00:49:46;;;;;;;4.68;1.60;;;;;;;;;;5036865;28;20037;-77
2023/07/01 00:52:12;;;;;;;3.08;1.40;;;;;;;;;;5038342;28;20100;-76
2023/07/01 00:54:38;;;;;;;4.18;1.77;;;;;;;;;;5038176;28;20108;-76
2023/07/01 00:57:04;;;;;;;3.30;1.45;;;;;;;;;;5038761;28;20086;-76
2023/07/01 00:59:32;;;;;;;3.67;1.50;;;;;;;;;;5040536;28;20029;-76
2023/07/01 01:02:04;;;;;;;4.60;1.50;;;;;;;;;;5046168;28;20028;-76
2023/07/01 01:04:37;;;;;;;4.57;1.77;;;;;;;;;;5040808;28;20412;-76
2023/07/01 01:07:12;;;;;;;4.18;1.77;;;;;;;;;;5036217;28;20033;-76
2023/07/01 01:09:47;;;;;;;3.38;1.70;;;;;;;;;;5040433;28;20032;-76
2023/07/01 01:12:13;;;;;;;3.67;1.48;;;;;;;;;;5042608;28;20497;-77
2023/07/01 01:14:40;;;;;;;6.05;1.98;;;;;;;;;;5042227;28;20424;-77
2023/07/01 01:17:11;;;;;;;4.90;2.03;;;;;;;;;;5024783;28;20026;-76
2023/07/01 01:19:41;;;;;;;4.20;1.48;;;;;;;;;;5041591;28;20203;-76
2023/07/01 01:22:21;;;;;;;3.53;1.90;;;;;;;;;;5037402;28;20026;-76
2023/07/01 01:24:53;;;;;;;4.55;1.88;;;;;;;;;;5035056;28;20074;-76
2023/07/01 01:27:24;;;;;;;4.38;1.73;;;;;;;;;;5041236;28;20487;-76
2023/07/01 01:29:50;;;;;;;4.40;1.80;;;;;;;;;;5037163;28;20052;-76
2023/07/01 01:32:15;;;;;;;3.17;1.40;;;;;;;;;;5015176;28;20063;-76
2023/07/01 01:34:41;;;;;;;7.88;2.17;;;;;;;;;;5019061;28;20045;-76
2023/07/01 01:37:13;;;;;;;4.93;1.52;;;;;;;;;;5033666;28;20120;-76
2023/07/01 01:39:44;;;;;;;5.45;1.90;;;;;;;;;;5014348;28;20512;-76
2023/07/01 01:42:24;;;;;;;6.00;1.80;;;;;;;;;;5044728;28;20120;-76
2023/07/01 01:44:53;;;;;;;4.63;1.90;;;;;;;;;;5040985;28;20494;-76
2023/07/01 01:47:23;;;;;;;4.57;1.85;;;;;;;;;;5036797;28;20064;-76
2023/07/01 01:49:58;;;;;;;4.00;2.00;;;;;;;;;;5036347;28;20029;-76
2023/07/01 01:52:25;;;;;;;7.75;1.85;;;;;;;;;;5035337;28;20036;-76
2023/07/01 01:54:53;;;;;;;5.07;1.58;;;;;;;;;;5019103;28;20036;-76
2023/07/01 01:57:20;;;;;;;4.18;1.80;;;;;;;;;;5038440;28;20026;-76
2023/07/01 01:59:45;;;;;;;5.15;1.90;;;;;;;;;;5032285;28;20030;-76
2023/07/01 02:02:11;;;;;;;4.13;1.95;;;;;;;;;;5020854;28;20358;-76
2023/07/01 02:04:37;;;;;;;4.47;1.73;;;;;;;;;;5019854;28;20028;-76
2023/07/01 02:07:03;;;;;;;4.65;1.70;;;;;;;;;;5018856;28;20492;-76
2023/07/01 02:09:28;;;;;;;5.28;1.80;;;;;;;;;;5018837;28;20120;-76
2023/07/01 02:11:54;;;;;;;4.60;1.80;;;;;;;;;;5035774;28;20112;-76
2023/07/01 02:14:20;;;;;;;3.85;1.77;;;;;;;;;;5021603;28;20120;-77
2023/07/01 02:16:45;;;;;;;4.03;1.88;;;;;;;;;;5018521;28;20777;-76
2023/07/01 02:19:11;;;;;;;4.65;1.58;;;;;;;;;;5024435;28;20485;-76
2023/07/01 02:21:36;;;;;;;5.88;1.70;;;;;;;;;;5019334;28;20037;-76
2023/07/01 02:24:02;;;;;;;4.75;1.60;;;;;;;;;;5020439;28;20087;-76
2023/07/01 02:26:27;;;;;;;5.35;1.80;;;;;;;;;;5041064;28;20029;-76
2023/07/01 02:28:52;;;;;;;3.65;1.80;;;;;;;;;;5034250;28;20080;-76
2023/07/01 02:31:18;;;;;;;3.08;1.60;;;;;;;;;;5032283;28;20029;-76
2023/07/01 02:33:49;;;;;;;3.83;1.70;;;;;;;;;;5021265;28;20025;-76
2023/07/01 02:36:15;;;;;;;6.22;1.88;;;;;;;;;;5038769;28;20021;-76
2023/07/01 02:38:41;;;;;;;3.67;1.77;;;;;;;;;;5036709;28;20121;-76
2023/07/01 02:41:06;;;;;;;3.70;1.60;;;;;;;;;;5037759;28;20024;-76
2023/07/01 02:43:31;;;;;;;5.30;1.60;;;;;;;;;;5038601;28;20217;-75
2023/07/01 02:45:57;;;;;;;4.72;1.52;;;;;;;;;;5034162;28;20020;-76
2023/07/01 02:48:22;;;;;;;3.47;1.60;;;;;;;;;;5041885;28;20029;-76
2023/07/01 02:50:47;;;;;;;3.85;1.98;;;;;;;;;;5022587;28;20586;-76
2023/07/01 02:53:15;;;;;;;5.57;1.80;;;;;;;;;;5041476;28;20074;-76
2023/07/01 02:55:40;;;;;;;3.22;1.30;;;;;;;;;;5042975;28;20029;-76
2023/07/01 02:58:06;;;;;;;5.65;1.83;;;;;;;;;;5038670;28;20374;-76
2023/07/01 03:00:31;;;;;;;3.63;1.50;;;;;;;;;;5043954;28;20090;-76
2023/07/01 03:03:05;;;;;;;3.85;1.70;;;;;;;;;;5022618;28;20469;-76
2023/07/01 03:05:35;;;;;;;3.03;1.60;;;;;;;;;;5022896;28;20103;-76
2023/07/01 03:08:00;;;;;;;3.85;1.63;;;;;;;;;;5046108;28;20075;-76
2023/07/01 03:10:26;;;;;;;3.72;1.50;;;;;;;;;;5039972;28;20054;-76
2023/07/01 03:12:51;;;;;;;3.20;1.40;;;;;;;;;;5031811;28;20060;-76
2023/07/01 03:15:17;;;;;;;4.18;2.00;;;;;;;;;;5032963;28;20013;-76
2023/07/01 03:17:42;;;;;;;4.32;1.95;;;;;;;;;;5040130;28;20037;-76
2023/07/01 03:20:20;;;;;;;3.65;1.90;;;;;;;;;;5034674;28;20093;-76
2023/07/01 03:22:45;;;;;;;3.70;1.60;;;;;;;;;;5035674;28;20029;-76
2023/07/01 03:25:11;;;;;;;4.35;1.58;;;;;;;;;;5050041;28;20021;-76
2023/07/01 03:27:37;;;;;;;3.78;1.67;;;;;;;;;;5020805;28;20462;-76
2023/07/01 03:30:02;;;;;;;5.00;1.70;;;;;;;;;;5038705;28;20558;-76
2023/07/01 03:32:28;;;;;;;3.53;1.60;;;;;;;;;;5044204;28;20063;-75
2023/07/01 03:34:55;;;;;;;4.07;1.52;;;;;;;;;;5021351;28;20022;-76
2023/07/01 03:37:20;;;;;;;6.13;1.85;;;;;;;;;;5014344;28;20108;-76
2023/07/01 03:39:45;;;;;;;3.90;1.80;;;;;;;;;;5021934;28;20128;-75
2023/07/01 03:42:11;;;;;;;4.82;1.60;;;;;;;;;;5035088;28;20054;-76
2023/07/01 03:44:36;;;;;;;4.40;1.65;;;;;;;;;;5036024;28;20489;-76
2023/07/01 03:47:02;;;;;;;3.22;1.83;;;;;;;;;;5024102;28;20064;-76
2023/07/01 03:49:27;;;;;;;3.47;1.60;;;;;;;;;;5039393;28;20087;-76
2023/07/01 03:51:54;;;;;;;3.10;1.38;;;;;;;;;;5034804;28;20030;-76
2023/07/01 03:54:19;;;;;;;3.47;1.63;;;;;;;;;;5017882;28;20060;-76
2023/07/01 03:56:44;;;;;;;3.20;1.50;;;;;;;;;;5041055;28;20079;-76
2023/07/01 03:59:10;;;;;;;5.60;1.90;;;;;;;;;;5021915;28;20087;-76
2023/07/01 04:01:36;;;;;;;5.25;1.48;;;;;;;;;;5050009;28;20050;-76
2023/07/01 04:04:03;;;;;;;3.15;1.60;;;;;;;;;;5022171;28;20513;-76
2023/07/01 04:06:28;;;;;;;4.05;1.63;;;;;;;;;;5026189;28;20049;-76
2023/07/01 04:08:54;;;;;;;4.40;1.55;;;;;;;;;;5028750;28;20065;-76
2023/07/01 04:11:21;;;;;;;3.47;1.63;;;;;;;;;;5025425;28;20017;-76
2023/07/01 04:13:46;;;;;;;3.63;1.75;;;;;;;;;;5042784;28;20416;-76
2023/07/01 04:16:11;;;;;;;2.88;1.42;;;;;;;;;;5025669;28;20021;-76
2023/07/01 04:18:37;;;;;;;3.80;1.60;;;;;;;;;;5032245;28;20481;-76
2023/07/01 04:21:02;;;;;;;3.22;1.48;;;;;;;;;;5041180;28;20115;-76
2023/07/01 04:23:28;;;;;;;3.55;1.65;;;;;;;;;;5042305;28;20068;-76
2023/07/01 04:25:53;;;;;;;3.42;1.52;;;;;;;;;;5026213;28;20021;-76
2023/07/01 04:28:18;;;;;;;3.97;1.60;;;;;;;;;;5042211;28;20174;-76
2023/07/01 04:30:44;;;;;;;3.03;1.50;;;;;;;;;;5035814;28;20057;-76
2023/07/01 04:33:09;;;;;;;3.72;1.60;;;;;;;;;;5023951;28;20036;-76
2023/07/01 04:35:34;;;;;;;3.03;1.70;;;;;;;;;;5043531;28;20035;-76
2023/07/01 04:38:00;;;;;;;2.92;1.70;;;;;;;;;;5026872;28;20120;-76
2023/07/01 04:40:25;;;;;;;2.58;1.70;;;;;;;;;;5039166;28;20091;-76
2023/07/01 04:42:50;;;;;;;2.65;1.60;;;;;;;;;;5023004;28;20036;-76
2023/07/01 04:45:18;;;;;;;3.63;1.73;;;;;;;;;;5037216;28;20026;-76
2023/07/01 04:47:44;;;;;;;3.67;1.50;;;;;;;;;;5036995;28;20371;-76
2023/07/01 04:50:10;;;;;;;2.92;1.60;;;;;;;;;;5036751;28;20033;-76
2023/07/01 04:52:35;;;;;;;2.50;1.35;;;;;;;;;;5022427;28;20051;-76
2023/07/01 04:55:01;;;;;;;2.55;1.50;;;;;;;;;;5021243;28;20434;-76
2023/07/01 04:57:26;;;;;;;2.97;1.40;;;;;;;;;;5048513;28;20030;-76
2023/07/01 04:59:51;;;;;;;4.10;1.65;;;;;;;;;;5022861;28;20021;-76
2023/07/01 05:02:17;;;;;;;2.53;1.23;;;;;;;;;;5039118;28;20111;-76
2023/07/01 05:04:43;;;;;;;2.97;1.40;;;;;;;;;;5037778;28;20497;-76
2023/07/01 05:07:08;;;;;;;2.40;1.40;;;;;;;;;;5020166;28;20081;-76
2023/07/01 05:09:33;;;;;;;2.45;1.30;;;;;;;;;;5035995;28;20028;-76
2023/07/01 05:11:59;;;;;;;3.50;1.45;;;;;;;;;;5035366;28;20029;-77
2023/07/01 05:14:24;;;;;;;2.33;1.42;;;;;;;;;;5042684;28;20084;-76
2023/07/01 05:16:49;;;;;;;3.72;1.30;;;;;;;;;;5042472;28;20116;-77
2023/07/01 05:19:15;;;;;;;2.67;1.40;;;;;;;;;;5035917;28;20033;-75
2023/07/01 05:21:52;;;;;;;3.03;1.50;;;;;;;;;;5040645;28;20469;-76
2023/07/01 05:24:18;;;;;;;2.22;1.40;;;;;;;;;;5038121;28;20389;-76
2023/07/01 05:26:48;;;;;;;2.63;1.70;;;;;;;;;;5021139;28;20033;-76
2023/07/01 05:29:14;;;;;;;3.35;1.50;;;;;;;;;;5043150;28;20037;-76
2023/07/01 05:31:39;;;;;;;2.38;1.48;;;;;;;;;;5036076;28;20028;-76
2023/07/01 05:34:05;;;;;;;6.95;2.00;;;;;;;;;;5039640;28;20029;-77
2023/07/01 05:36:30;;;;;;;3.60;1.63;;;;;;;;;;5032965;28;20103;-76
2023/07/01 05:38:56;;;;;;;2.63;1.40;;;;;;;;;;5043847;28;20024;-76
2023/07/01 05:41:21;;;;;;;3.28;1.52;;;;;;;;;;5017545;28;20029;-76
2023/07/01 05:43:46;;;;;;;3.00;1.42;;;;;;;;;;5029161;28;20032;-76
2023/07/01 05:46:12;;;;;;;2.53;1.55;;;;;;;;;;5022149;28;20033;-76
2023/07/01 05:48:37;;;;;;;2.50;1.50;;;;;;;;;;5018293;28;20028;-77
2023/07/01 05:51:02;;;;;;;2.42;1.50;;;;;;;;;;5015789;28;20485;-76
2023/07/01 05:53:28;;;;;;;2.33;1.60;;;;;;;;;;5042677;28;20395;-76
2023/07/01 05:55:53;;;;;;;3.38;1.58;;;;;;;;;;5015029;28;20091;-76
2023/07/01 05:58:19;;;;;;;2.53;1.48;;;;;;;;;;5038322;28;20469;-76
2023/07/01 06:00:45;;;;;;;3.15;1.30;;;;;;;;;;5049685;28;20032;-76
2023/07/01 06:03:11;;;;;;;3.45;1.60;;;;;;;;;;5020743;28;20048;-76
2023/07/01 06:05:37;;;;;;;2.38;1.50;;;;;;;;;;5037945;28;20029;-76
2023/07/01 06:08:02;;;;;;;5.47;1.40;;;;;;;;;;5040614;28;20943;-76
2023/07/01 06:10:27;;;;;;;2.65;1.17;;;;;;;;;;5020644;28;20083;-76
2023/07/01 06:12:53;;;;;;;2.20;1.38;;;;;;;;;;5018830;28;20033;-76
2023/07/01 06:15:18;;;;;;;3.03;1.27;;;;;;;;;;5039689;28;20021;-76
2023/07/01 06:17:43;;;;;;;2.10;1.40;;;;;;;;;;5037263;28;20033;-76
2023/07/01 06:20:09;;;;;;;2.72;1.30;;;;;;;;;;5034431;28;20052;-76
2023/07/01 06:22:35;;;;;;;2.67;1.40;;;;;;;;;;5033134;28;20050;-76
2023/07/01 06:25:00;;;;;;;4.50;1.48;;;;;;;;;;5034613;28;20020;-76
2023/07/01 06:27:25;;;;;;;2.65;1.35;;;;;;;;;;5044989;28;20036;-76
2023/07/01 06:29:51;;;;;;;1.95;1.30;;;;;;;;;;5038973;28;20379;-76
2023/07/01 06:32:16;;;;;;;2.72;1.30;;;;;;;;;;5029747;28;20847;-76
2023/07/01 06:34:42;;;;;;;2.75;1.20;;;;;;;;;;5037000;28;20033;-76
2023/07/01 06:37:07;;;;;;;1.73;1.30;;;;;;;;;;5038740;28;20025;-76
2023/07/01 06:39:33;;;;;;;2.25;1.10;;;;;;;;;;5034214;28;20024;-76
2023/07/01 06:41:58;;;;;;;1.98;1.20;;;;;;;;;;5038307;28;20540;-76
2023/07/01 06:44:23;;;;;;;4.38;1.30;;;;;;;;;;5016275;28;20021;-76
2023/07/01 06:46:49;;;;;;;2.38;1.30;;;;;;;;;;5033733;28;20037;-76
2023/07/01 06:49:14;;;;;;;2.53;1.27;;;;;;;;;;5023746;28;20063;-76
2023/07/01 06:51:41;;;;;;;2.60;1.70;;;;;;;;;;5020270;28;20381;-76
2023/07/01 06:54:07;;;;;;;2.08;1.30;;;;;;;;;;5035896;28;20029;-76
2023/07/01 06:56:32;;;;;;;1.83;1.20;;;;;;;;;;5040088;28;20032;-76
2023/07/01 06:58:58;;;;;;;2.63;1.40;;;;;;;;;;5016749;28;20128;-76
2023/07/01 07:01:23;;;;;;;2.83;1.20;;;;;;;;;;5036980;28;20025;-76
2023/07/01 07:03:48;;;;;;;2.00;1.10;;;;;;;;;;5038444;28;20041;-77
2023/07/01 07:06:14;;;;;;;1.88;1.10;;;;;;;;;;5038761;28;20497;-77
2023/07/01 07:08:39;;;;;;;1.30;1.10;;;;;;;;;;5034818;28;20026;-77
2023/07/01 07:11:05;;;;;;;1.60;1.10;;;;;;;;;;5039770;28;20025;-77
2023/07/01 07:13:30;;;;;;;1.50;1.25;;;;;;;;;;5019574;28;20033;-76
2023/07/01 07:15:55;;;;;;;2.05;1.20;;;;;;;;;;5040095;28;20496;-77
2023/07/01 07:18:21;;;;;;;1.27;1.00;;;;;;;;;;5041474;28;20436;-77
2023/07/01 07:20:46;;;;;;;2.10;1.05;;;;;;;;;;5037819;28;20021;-77
2023/07/01 07:23:11;;;;;;;1.85;1.20;;;;;;;;;;5023007;28;20029;-77
2023/07/01 07:25:37;;;;;;;2.53;1.20;;;;;;;;;;5016477;28;20372;-76
2023/07/01 07:28:05;;;;;;;1.63;1.00;;;;;;;;;;5017544;28;20029;-77
2023/07/01 07:30:31;;;;;;;2.15;1.10;;;;;;;;;;5032398;28;20515;-77
2023/07/01 07:32:56;;;;;;;1.95;1.25;;;;;;;;;;5031450;28;20021;-77
2023/07/01 07:35:22;;;;;;;1.85;1.40;;;;;;;;;;5035929;28;20386;-77
2023/07/01 07:37:48;;;;;;;1.65;1.27;;;;;;;;;;5040064;28;20025;-77
2023/07/01 07:40:13;;;;;;;2.00;1.25;;;;;;;;;;5030152;28;20029;-76
2023/07/01 07:42:41;;;;;;;2.17;1.30;;;;;;;;;;5038390;28;20024;-77
2023/07/01 07:45:07;;;;;;;3.08;1.50;;;;;;;;;;5036336;28;20354;-77
2023/07/01 07:47:32;;;;;;;4.50;1.55;;;;;;;;;;5030752;28;20035;-77
2023/07/01 07:49:59;;;;;;;2.22;1.33;;;;;;;;;;5012366;28;20021;-77
2023/07/01 07:52:24;;;;;;;2.20;1.50;;;;;;;;;;5017931;28;20025;-77
2023/07/01 07:54:49;;;;;;;2.70;1.50;;;;;;;;;;5023363;28;20032;-77
2023/07/01 07:57:15;;;;;;;2.92;1.50;;;;;;;;;;5037385;28;20037;-77
2023/07/01 07:59:41;;;;;;;2.97;1.50;;;;;;;;;;5015454;28;20025;-76
2023/07/01 08:02:08;;;;;;;1.58;1.15;;;;;;;;;;5035553;28;20036;-77
2023/07/01 08:04:33;;;;;;;2.13;1.40;;;;;;;;;;5017666;28;20071;-77
2023/07/01 08:06:59;;;;;;;2.13;1.60;;;;;;;;;;5034462;28;20025;-77
2023/07/01 08:09:25;;;;;;;3.17;1.20;;;;;;;;;;5016644;28;20029;-77
2023/07/01 08:11:50;;;;;;;2.50;1.48;;;;;;;;;;5015474;28;20036;-77
2023/07/01 08:14:16;;;;;;;2.65;1.20;;;;;;;;;;5032365;28;20068;-77
2023/07/01 08:16:41;;;;;;;1.75;1.17;;;;;;;;;;5036874;28;20028;-77
2023/07/01 08:19:06;;;;;;;2.22;1.20;;;;;;;;;;5019306;28;20021;-77
2023/07/01 08:21:35;;;;;;;2.40;1.42;;;;;;;;;;5019692;28;20052;-77
2023/07/01 08:24:01;;;;;;;1.65;1.40;;;;;;;;;;5041030;28;20025;-77
2023/07/01 08:26:26;;;;;;;2.72;1.80;;;;;;;;;;5038794;28;20524;-77
2023/07/01 08:28:51;;;;;;;1.50;1.20;;;;;;;;;;5035740;28;20029;-77
2023/07/01 08:31:17;;;;;;;1.80;1.23;;;;;;;;;;5035973;28;20029;-77
2023/07/01 08:33:42;;;;;;;3.45;1.60;;;;;;;;;;5012139;28;20588;-76
2023/07/01 08:36:07;;;;;;;1.95;1.25;;;;;;;;;;5045806;28;20025;-77
2023/07/01 08:38:33;;;;;;;2.13;1.30;;;;;;;;;;5017350;28;20048;-77
2023/07/01 08:41:03;;;;;;;1.63;1.17;;;;;;;;;;5017910;28;20034;-77
2023/07/01 08:43:29;;;;;;;1.98;1.30;;;;;;;;;;5035947;28;20029;-77
2023/07/01 08:46:02;;;;;;;1.60;1.40;;;;;;;;;;5036558;28;20160;-76
2023/07/01 08:48:30;;;;;;;2.15;1.20;;;;;;;;;;5039571;28;20520;-76
2023/07/01 08:51:21;;;;;;;1.63;1.23;;;;;;;;;;5033378;28;20133;-77
2023/07/01 08:53:47;;;;;;;2.85;1.30;;;;;;;;;;5040064;28;20029;-77
2023/07/01 08:56:13;;;;;;;1.65;1.30;;;;;;;;;;5034452;28;20033;-76
2023/07/01 08:58:45;;;;;;;1.65;1.15;;;;;;;;;;5040698;28;20552;-77
2023/07/01 09:01:11;;;;;;;2.77;1.77;;;;;;;;;;5037336;28;20060;-77
2023/07/01 09:03:36;;;;;;;2.05;1.40;;;;;;;;;;5018575;28;20061;-77
2023/07/01 09:06:05;;;;;;;2.25;1.35;;;;;;;;;;5020205;28;20481;-77
2023/07/01 09:08:38;;;;;;;2.70;1.40;;;;;;;;;;5032118;28;20465;-76
2023/07/01 09:11:04;;;;;;;2.45;1.33;;;;;;;;;;5031933;28;20022;-76
2023/07/01 09:13:29;;;;;;;2.80;1.67;;;;;;;;;;5022186;28;20128;-76
2023/07/01 09:15:55;;;;;;;6.40;1.55;;;;;;;;;;5035656;28;20125;-77
2023/07/01 09:18:30;;;;;;;1.88;1.50;;;;;;;;;;5025726;28;20478;-77
2023/07/01 09:20:57;;;;;;;2.10;1.60;;;;;;;;;;5040676;28;20086;-77
2023/07/01 09:23:29;;;;;;;3.40;1.55;;;;;;;;;;5035834;28;20035;-77
2023/07/01 09:26:07;;;;;;;1.83;1.40;;;;;;;;;;5031667;28;20035;-76
2023/07/01 09:28:34;;;;;;;2.10;1.50;;;;;;;;;;5019418;28;20032;-76
2023/07/01 09:31:04;;;;;;;1.65;1.30;;;;;;;;;;5015052;28;20023;-77
2023/07/01 09:33:31;;;;;;;1.95;1.45;;;;;;;;;;5024971;28;20490;-77
2023/07/01 09:36:02;;;;;;;1.75;1.40;;;;;;;;;;5024745;28;20481;-77
2023/07/01 09:38:29;;;;;;;1.80;1.30;;;;;;;;;;5036557;28;20437;-77
2023/07/01 09:40:54;;;;;;;2.00;1.27;;;;;;;;;;5020226;28;20035;-77
2023/07/01 09:43:19;;;;;;;3.17;1.50;;;;;;;;;;5036227;28;20025;-77
2023/07/01 09:45:55;;;;;;;2.17;1.40;;;;;;;;;;5042278;28;20021;-77
2023/07/01 09:48:21;;;;;;;1.95;1.40;;;;;;;;;;5015360;28;20026;-77
2023/07/01 09:50:48;;;;;;;1.90;1.50;;;;;;;;;;5042392;28;20052;-77
2023/07/01 09:53:21;;;;;;;2.85;1.40;;;;;;;;;;5015518;28;20029;-77
2023/07/01 09:55:47;;;;;;;2.42;1.20;;;;;;;;;;5034548;28;20036;-77
2023/07/01 09:58:13;;;;;;;1.73;1.40;;;;;;;;;;5033985;28;20033;-77
2023/07/01 10:00:39;;;;;;;1.85;1.40;;;;;;;;;;5035538;28;20504;-77
2023/07/01 10:03:04;;;;;;;1.63;1.30;;;;;;;;;;5039621;28;20087;-77
2023/07/01 10:05:31;;;;;;;2.67;1.40;;;;;;;;;;5035428;28;20397;-77
2023/07/01 10:07:56;;;;;;;2.63;1.60;;;;;;;;;;5037568;28;20037;-77
2023/07/01 10:10:22;;;;;;;2.00;1.40;;;;;;;;;;5032441;28;20033;-77
2023/07/01 10:12:48;;;;;;;2.22;1.50;;;;;;;;;;5044461;28;20186;-77
2023/07/01 10:15:20;;;;;;;1.83;1.30;;;;;;;;;;5020287;28;20060;-77
2023/07/01 10:17:49;;;;;;;1.80;1.25;;;;;;;;;;5035615;28;20425;-77
2023/07/01 10:20:27;;;;;;;2.40;1.58;;;;;;;;;;5035593;28;20108;-77
2023/07/01 10:22:55;;;;;;;2.33;1.60;;;;;;;;;;5034790;28;20104;-77
2023/07/01 10:25:36;;;;;;;1.90;1.30;;;;;;;;;;5017797;28;20508;-77
2023/07/01 10:28:02;;;;;;;3.60;1.70;;;;;;;;;;5031646;28;20061;-77
2023/07/01 10:30:53;;;;;;;2.50;1.70;;;;;;;;;;5036513;28;20029;-77
2023/07/01 10:33:30;;;;;;;2.40;1.48;;;;;;;;;;5037460;28;20025;-77
2023/07/01 10:36:05;;;;;;;1.98;1.40;;;;;;;;;;5037611;28;20017;-77
2023/07/01 10:38:31;;;;;;;3.30;1.88;;;;;;;;;;5022437;28;20031;-77
2023/07/01 10:40:57;;;;;;;2.75;2.03;;;;;;;;;;5039486;28;20389;-77
2023/07/01 10:43:26;;;;;;;2.63;1.88;;;;;;;;;;5036785;28;20029;-77
2023/07/01 10:46:12;;;;;;;2.80;1.92;;;;;;;;;;5041112;28;20358;-77
2023/07/01 10:49:03;;;;;;;2.70;1.83;;;;;;;;;;5020040;28;20032;-77
2023/07/01 10:51:48;;;;;;;4.57;2.42;;;;;;;;;;5035826;28;20032;-77
2023/07/01 10:54:32;;;;;;;4.22;2.47;;;;;;;;;;5037067;28;20033;-76
2023/07/01 10:57:13;;;;;;;5.15;2.25;;;;;;;;;;5034101;28;20052;-77
2023/07/01 10:59:39;;;;;;;3.17;2.30;;;;;;;;;;5017874;28;20390;-77
2023/07/01 11:02:07;;;;;;;4.00;2.28;;;;;;;;;;5025605;28;20050;-77
2023/07/01 11:04:51;;;;;;;3.38;2.30;;;;;;;;;;5024073;28;20386;-77
2023/07/01 11:07:27;;;;;;;3.20;2.20;;;;;;;;;;5033520;28;20488;-77
2023/07/01 11:09:53;;;;;;;5.03;2.20;;;;;;;;;;5022166;28;20496;-77
2023/07/01 11:12:19;;;;;;;3.72;2.28;;;;;;;;;;5015698;28;20052;-77
2023/07/01 11:14:45;;;;;;;3.67;2.22;;;;;;;;;;5025443;28;20117;-77
2023/07/01 11:17:18;;;;;;;4.90;2.38;;;;;;;;;;5034077;28;20068;-77
2023/07/01 11:19:45;;;;;;;3.55;2.10;;;;;;;;;;5039084;28;20029;-77
2023/07/01 11:22:14;;;;;;;3.63;2.30;;;;;;;;;;5036157;28;20017;-77
2023/07/01 11:24:40;;;;;;;4.50;2.10;;;;;;;;;;5035294;28;20411;-77
2023/07/01 11:27:08;;;;;;;3.50;2.35;;;;;;;;;;5021342;28;20043;-77
2023/07/01 11:29:34;;;;;;;4.32;2.20;;;;;;;;;;5009765;28;20033;-77
2023/07/01 11:32:02;;;;;;;3.92;2.30;;;;;;;;;;5014993;28;20059;-77
2023/07/01 11:34:28;;;;;;;3.47;2.20;;;;;;;;;;5042351;28;20491;-77
2023/07/01 11:36:55;;;;;;;3.97;2.75;;;;;;;;;;5030988;28;20439;-78
2023/07/01 11:39:21;;;;;;;4.32;2.90;;;;;;;;;;5029641;28;20036;-77
2023/07/01 11:42:01;;;;;;;4.70;3.05;;;;;;;;;;5037881;28;20393;-77
2023/07/01 11:44:28;;;;;;;4.32;2.92;;;;;;;;;;5033117;28;20121;-77
2023/07/01 11:46:55;;;;;;;3.95;2.78;;;;;;;;;;5038108;28;20036;-77
2023/07/01 11:49:31;;;;;;;3.08;2.22;;;;;;;;;;5011071;28;20034;-78
2023/07/01 11:51:58;;;;;;;3.53;2.35;;;;;;;;;;5039553;28;20087;-78
2023/07/01 11:54:40;;;;;;;4.50;2.85;;;;;;;;;;5030933;28;20674;-78
2023/07/01 11:57:18;;;;;;;3.90;2.90;;;;;;;;;;5036453;28;20029;-78
2023/07/01 11:59:50;;;;;;;3.70;2.70;;;;;;;;;;5013967;28;20033;-78
2023/07/01 12:02:16;;;;;;;3.37;2.53;;;;;;;;;;5016256;28;20478;-78
2023/07/01 12:04:41;;;;;;;5.18;2.78;;;;;;;;;;5010697;28;20029;-78
2023/07/01 12:07:15;;;;;;;3.78;2.80;;;;;;;;;;5032152;28;20033;-78
2023/07/01 12:09:42;;;;;;;4.88;3.05;;;;;;;;;;5013274;28;20372;-79
2023/07/01 12:12:32;;;;;;;4.68;2.30;;;;;;;;;;5021838;28;20087;-79
2023/07/01 12:15:02;;;;;;;5.63;2.47;;;;;;;;;;5014275;28;20033;-79
2023/07/01 12:17:31;;;;;;;5.65;2.45;;;;;;;;;;5032080;28;20500;-79
2023/07/01 12:19:58;;;;;;;5.18;2.58;;;;;;;;;;5039553;28;20087;-80
2023/07/01 12:22:27;;;;;;;5.85;2.60;;;;;;;;;;5019461;28;20452;-80
2023/07/01 12:24:54;;;;;;;4.40;2.65;;;;;;;;;;5013504;28;20033;-80
2023/07/01 12:27:20;;;;;;;4.28;2.33;;;;;;;;;;5016506;28;20201;-80
2023/07/01 12:29:45;;;;;;;4.10;2.45;;;;;;;;;;5016707;28;20655;-80
2023/07/01 12:32:11;;;;;;;4.90;2.50;;;;;;;;;;5016070;28;20024;-81
2023/07/01 12:34:36;;;;;;;4.60;3.22;;;;;;;;;;5031569;28;20060;-79
2023/07/01 12:37:02;;;;;;;4.57;2.75;;;;;;;;;;5031635;28;20028;-81
2023/07/01 12:39:28;;;;;;;5.13;3.15;;;;;;;;;;5012778;28;20401;-81
2023/07/01 12:41:55;;;;;;;4.72;2.47;;;;;;;;;;5033675;28;20968;-81
2023/07/01 12:44:20;;;;;;;4.35;3.00;;;;;;;;;;5038156;28;20553;-81
2023/07/01 12:46:46;;;;;;;4.68;2.63;;;;;;;;;;5017235;28;20140;-81
2023/07/01 12:49:12;;;;;;;6.18;3.30;;;;;;;;;;5015483;28;20037;-81
2023/07/01 12:51:38;;;;;;;4.55;3.15;;;;;;;;;;5029577;28;20033;-81
2023/07/01 12:54:05;;;;;;;4.30;2.40;;;;;;;;;;5018437;28;20040;-80
2023/07/01 12:56:30;;;;;;;4.13;2.30;;;;;;;;;;5046254;28;20477;-81
2023/07/01 12:58:56;;;;;;;3.70;2.30;;;;;;;;;;5025952;28;20033;-80
2023/07/01 13:01:21;;;;;;;5.57;2.67;;;;;;;;;;5029939;28;20041;-81
2023/07/01 13:03:46;;;;;;;4.00;2.55;;;;;;;;;;5043480;28;20021;-80
2023/07/01 13:06:31;;;;;;;4.47;2.60;;;;;;;;;;5027492;28;20052;-80
2023/07/01 13:09:03;;;;;;;4.82;3.00;;;;;;;;;;5025423;28;20025;-80
2023/07/01 13:11:32;;;;;;;4.65;3.08;;;;;;;;;;5039491;28;20369;-81
2023/07/01 13:13:57;;;;;;;5.03;3.25;;;;;;;;;;5040207;28;20021;-79
2023/07/01 13:16:33;;;;;;;6.00;3.80;;;;;;;;;;5039958;28;20067;-80
2023/07/01 13:19:12;;;;;;;5.50;4.05;;;;;;;;;;5060286;28;20036;-82
2023/07/01 13:21:39;;;;;;;6.38;4.38;;;;;;;;;;5035510;28;20075;-81
2023/07/01 13:24:07;;;;;;;6.80;4.20;;;;;;;;;;5026754;28;20036;-82
2023/07/01 13:26:33;;;;;;;6.53;4.35;;;;;;;;;;5043718;28;20035;-82
2023/07/01 13:28:59;;;;;;;6.50;3.92;;;;;;;;;;5036939;28;20052;-82
2023/07/01 13:31:24;;;;;;;6.47;4.43;;;;;;;;;;5017274;28;20033;-82
2023/07/01 13:33:59;;;;;;;6.57;4.07;;;;;;;;;;5037847;28;20037;-80
2023/07/01 13:36:25;;;;;;;6.07;3.85;;;;;;;;;;5045889;28;20087;-81
2023/07/01 13:38:50;;;;;;;4.60;3.45;;;;;;;;;;5038255;28;20474;-82
2023/07/01 13:41:21;;;;;;;5.40;3.20;;;;;;;;;;5024679;28;20045;-82
2023/07/01 13:43:47;;;;;;;5.57;3.15;;;;;;;;;;5041504;28;21477;-81
2023/07/01 13:46:12;;;;;;;5.35;2.88;;;;;;;;;;5031431;28;20025;-80
2023/07/01 13:48:38;;;;;;;6.15;3.47;;;;;;;;;;5059085;28;20087;-81
2023/07/01 13:51:03;;;;;;;7.20;3.30;;;;;;;;;;5056409;28;20032;-82
2023/07/01 13:53:30;;;;;;;5.35;3.70;;;;;;;;;;5027233;28;20064;-79
2023/07/01 13:55:56;;;;;;;6.70;3.92;;;;;;;;;;5050761;28;20030;-80
2023/07/01 13:58:21;;;;;;;6.38;4.00;;;;;;;;;;5029846;28;20115;-81
2023/07/01 14:00:49;;;;;;;8.95;4.55;;;;;;;;;;5036330;28;20551;-79
2023/07/01 14:03:20;;;;;;;5.88;4.35;;;;;;;;;;5051930;28;20338;-79
2023/07/01 14:05:46;;;;;;;9.55;4.20;;;;;;;;;;5023706;28;20106;-80
2023/07/01 14:08:11;;;;;;;8.50;4.10;;;;;;;;;;5020771;28;20541;-79
2023/07/01 14:10:39;;;;;;;6.93;4.07;;;;;;;;;;5017503;28;20116;-80
2023/07/01 14:13:07;;;;;;;6.60;3.47;;;;;;;;;;5006630;28;20060;-82
2023/07/01 14:15:41;;;;;;;5.38;2.85;;;;;;;;;;5015523;28;20398;-82
2023/07/01 14:18:25;;;;;;;4.53;2.70;;;;;;;;;;5028912;28;20041;-79
2023/07/01 14:21:01;;;;;;;4.90;2.13;;;;;;;;;;5011706;28;20033;-81
2023/07/01 14:23:40;;;;;;;2.78;1.80;;;;;;;;;;5029346;28;20025;-79
2023/07/01 14:26:09;;;;;;;2.90;2.00;;;;;;;;;;5013843;28;20025;-81
2023/07/01 14:28:35;;;;;;;4.53;1.95;;;;;;;;;;5033911;28;20044;-82
2023/07/01 14:31:08;;;;;;;6.35;3.30;;;;;;;;;;5039332;28;20045;-82
2023/07/01 14:33:38;;;;;;;4.93;3.78;;;;;;;;;;5022040;28;20149;-81
2023/07/01 14:36:07;;;;;;;6.97;4.28;;;;;;;;;;5021333;28;20405;-82
2023/07/01 14:39:00;;;;;;;5.53;3.60;;;;;;;;;;5018462;28;20726;-80
2023/07/01 14:41:26;;;;;;;6.28;4.03;;;;;;;;;;5019239;28;20056;-81
2023/07/01 14:44:16;;;;;;;4.97;3.78;;;;;;;;;;5032175;28;20025;-81
2023/07/01 14:46:41;;;;;;;5.10;3.40;;;;;;;;;;5007274;28;20040;-81